BAW22G EGCC-EHRD
Flight info
| Callsign | BAW22G |
|---|---|
| Flight time | 1h 6m |
| Altitude | 39000 |
| Route | SONEX UL975 DESIG L603 LAMSO |
| Aircraft | A20N/M-SDE2E3FGHIRWXY/LB1 |
Departure
| Time | 2026-05-04 16:35 |
|---|---|
| Airport | Manchester Airport (EGCC) |
Arrival
| Time | 2026-05-04 17:41 |
|---|---|
| Airport | Rotterdam The Hague Airport (EHRD) |
| Time | Latitude | Longitude | Altitude | Speed | Heading |
|---|---|---|---|---|---|
| 2026-05-04 15:56 | 53.36044 | -2.26900 | 239 ft | 0 kts | 315° |
| 2026-05-04 16:14 | 53.36039 | -2.26888 | 238 ft | 0 kts | 240° |
| 2026-05-04 16:15 | 53.36029 | -2.26842 | 239 ft | 3 kts | 314° |
| 2026-05-04 16:16 | 53.36009 | -2.26807 | 238 ft | 3 kts | 291° |
| 2026-05-04 16:16 | 53.36011 | -2.26784 | 238 ft | 0 kts | 226° |
| 2026-05-04 16:19 | 53.35919 | -2.26762 | 234 ft | 0 kts | 111° |
| 2026-05-04 16:20 | 53.35881 | -2.26699 | 233 ft | 10 kts | 160° |
| 2026-05-04 16:20 | 53.35659 | -2.26635 | 236 ft | 23 kts | 171° |
| 2026-05-04 16:21 | 53.35360 | -2.27059 | 247 ft | 1 kts | 230° |
| 2026-05-04 16:22 | 53.35352 | -2.27073 | 248 ft | 0 kts | 230° |
| 2026-05-04 16:22 | 53.35176 | -2.27438 | 259 ft | 7 kts | 232° |
| 2026-05-04 16:23 | 53.35072 | -2.27493 | 266 ft | 10 kts | 161° |
| 2026-05-04 16:24 | 53.35047 | -2.27484 | 267 ft | 0 kts | 172° |
| 2026-05-04 16:28 | 53.35045 | -2.27484 | 268 ft | 1 kts | 172° |
| 2026-05-04 16:29 | 53.35040 | -2.27483 | 268 ft | 0 kts | 172° |
| 2026-05-04 16:31 | 53.35038 | -2.27482 | 268 ft | 1 kts | 172° |
| 2026-05-04 16:32 | 53.34908 | -2.27530 | 265 ft | 0 kts | 231° |
| 2026-05-04 16:33 | 53.34890 | -2.27569 | 265 ft | 14 kts | 231° |
| 2026-05-04 16:34 | 53.34186 | -2.29027 | 251 ft | 142 kts | 231° |
| 2026-05-04 16:34 | 53.33539 | -2.30351 | 759 ft | 143 kts | 231° |
| 2026-05-04 16:35 | 53.31682 | -2.34350 | 2206 ft | 156 kts | 253° |
| 2026-05-04 16:35 | 53.33240 | -2.39313 | 3514 ft | 193 kts | 331° |
| 2026-05-04 16:36 | 53.34514 | -2.40227 | 4053 ft | 207 kts | 337° |
| 2026-05-04 16:36 | 53.37362 | -2.42196 | 5005 ft | 243 kts | 338° |
| 2026-05-04 16:37 | 53.40788 | -2.44281 | 4951 ft | 267 kts | 341° |
| 2026-05-04 16:37 | 53.42561 | -2.45236 | 4951 ft | 268 kts | 342° |
| 2026-05-04 16:37 | 53.46176 | -2.45015 | 5021 ft | 273 kts | 30° |
| 2026-05-04 16:38 | 53.48107 | -2.39782 | 6284 ft | 274 kts | 86° |
| 2026-05-04 16:39 | 53.48152 | -2.30028 | 9399 ft | 285 kts | 90° |
| 2026-05-04 16:39 | 53.48160 | -2.23117 | 10958 ft | 316 kts | 90° |
| 2026-05-04 16:40 | 53.49199 | -2.15530 | 12246 ft | 346 kts | 76° |
| 2026-05-04 16:40 | 53.48842 | -2.07472 | 14067 ft | 355 kts | 104° |
| 2026-05-04 16:41 | 53.47543 | -1.99335 | 15781 ft | 366 kts | 105° |
| 2026-05-04 16:41 | 53.45583 | -1.86760 | 18158 ft | 380 kts | 104° |
| 2026-05-04 16:42 | 53.43587 | -1.73721 | 18999 ft | 386 kts | 104° |
| 2026-05-04 16:43 | 53.42241 | -1.64987 | 19646 ft | 391 kts | 104° |
| 2026-05-04 16:43 | 53.40868 | -1.56124 | 21188 ft | 396 kts | 104° |
| 2026-05-04 16:43 | 53.40167 | -1.51623 | 21873 ft | 400 kts | 104° |
| 2026-05-04 16:44 | 53.37294 | -1.33293 | 24402 ft | 416 kts | 105° |
| 2026-05-04 16:45 | 53.35798 | -1.23831 | 25531 ft | 424 kts | 105° |
| 2026-05-04 16:46 | 53.33495 | -1.09371 | 27120 ft | 434 kts | 105° |
| 2026-05-04 16:46 | 53.31920 | -0.99558 | 28059 ft | 440 kts | 105° |
| 2026-05-04 16:47 | 53.30314 | -0.89603 | 28932 ft | 446 kts | 105° |
| 2026-05-04 16:47 | 53.28679 | -0.79532 | 29733 ft | 452 kts | 105° |
| 2026-05-04 16:48 | 53.26170 | -0.64194 | 30905 ft | 460 kts | 105° |
| 2026-05-04 16:48 | 53.25320 | -0.59034 | 31320 ft | 462 kts | 105° |
| 2026-05-04 16:49 | 53.23613 | -0.48706 | 32294 ft | 460 kts | 105° |
| 2026-05-04 16:49 | 53.21916 | -0.38502 | 33248 ft | 458 kts | 105° |
| 2026-05-04 16:50 | 53.20208 | -0.28294 | 34129 ft | 456 kts | 105° |
| 2026-05-04 16:50 | 53.18498 | -0.18134 | 34950 ft | 454 kts | 105° |
| 2026-05-04 16:51 | 53.16784 | -0.08007 | 35707 ft | 453 kts | 106° |
| 2026-05-04 16:51 | 53.15926 | -0.02961 | 36063 ft | 452 kts | 106° |
| 2026-05-04 16:51 | 53.14206 | 0.07111 | 36715 ft | 452 kts | 106° |
| 2026-05-04 16:52 | 53.12479 | 0.17171 | 37301 ft | 452 kts | 106° |
| 2026-05-04 16:52 | 53.11609 | 0.22212 | 37576 ft | 452 kts | 106° |
| 2026-05-04 16:53 | 53.09880 | 0.32194 | 38106 ft | 451 kts | 106° |
| 2026-05-04 16:53 | 53.07254 | 0.47249 | 38831 ft | 451 kts | 106° |
| 2026-05-04 16:54 | 53.06377 | 0.52249 | 38978 ft | 452 kts | 106° |
| 2026-05-04 16:55 | 53.01082 | 0.82139 | 38983 ft | 449 kts | 107° |
| 2026-05-04 16:56 | 52.99315 | 0.92012 | 38182 ft | 445 kts | 107° |
| 2026-05-04 16:56 | 52.97024 | 1.06914 | 36148 ft | 445 kts | 101° |
| 2026-05-04 16:57 | 52.96461 | 1.11957 | 35424 ft | 445 kts | 100° |
| 2026-05-04 16:57 | 52.95320 | 1.22088 | 33848 ft | 448 kts | 101° |
| 2026-05-04 16:58 | 52.93540 | 1.37391 | 31343 ft | 452 kts | 101° |
| 2026-05-04 16:58 | 52.93140 | 1.40792 | 30762 ft | 453 kts | 101° |
| 2026-05-04 16:59 | 52.91927 | 1.51035 | 29299 ft | 448 kts | 101° |
| 2026-05-04 17:00 | 52.89548 | 1.70902 | 26730 ft | 431 kts | 101° |
| 2026-05-04 17:00 | 52.87814 | 1.85204 | 25108 ft | 415 kts | 101° |
| 2026-05-04 17:01 | 52.86658 | 1.94649 | 25000 ft | 421 kts | 101° |
| 2026-05-04 17:01 | 52.85491 | 2.04126 | 24996 ft | 420 kts | 102° |
| 2026-05-04 17:02 | 52.84315 | 2.13602 | 24999 ft | 420 kts | 102° |
| 2026-05-04 17:02 | 52.83133 | 2.23066 | 24994 ft | 420 kts | 102° |
| 2026-05-04 17:03 | 52.82540 | 2.27791 | 25000 ft | 420 kts | 102° |
| 2026-05-04 17:03 | 52.81942 | 2.32533 | 25004 ft | 420 kts | 102° |
| 2026-05-04 17:03 | 52.80746 | 2.41979 | 24990 ft | 419 kts | 102° |
| 2026-05-04 17:04 | 52.79561 | 2.51280 | 24203 ft | 414 kts | 102° |
| 2026-05-04 17:04 | 52.78375 | 2.60506 | 22982 ft | 407 kts | 102° |
| 2026-05-04 17:05 | 52.77201 | 2.69569 | 21740 ft | 399 kts | 102° |
| 2026-05-04 17:05 | 52.76045 | 2.78444 | 20512 ft | 392 kts | 102° |
| 2026-05-04 17:06 | 52.74905 | 2.87158 | 20017 ft | 389 kts | 102° |
| 2026-05-04 17:06 | 52.74339 | 2.91477 | 20002 ft | 390 kts | 102° |
| 2026-05-04 17:07 | 52.71887 | 2.99324 | 19998 ft | 389 kts | 135° |
| 2026-05-04 17:07 | 52.70513 | 3.01208 | 19997 ft | 389 kts | 147° |
| 2026-05-04 17:07 | 52.67249 | 3.03752 | 20000 ft | 388 kts | 159° |
| 2026-05-04 17:07 | 52.64722 | 3.05310 | 20001 ft | 388 kts | 160° |
| 2026-05-04 17:08 | 52.62188 | 3.06858 | 19998 ft | 388 kts | 160° |
| 2026-05-04 17:08 | 52.57201 | 3.10012 | 19502 ft | 384 kts | 159° |
| 2026-05-04 17:08 | 52.54725 | 3.11619 | 18960 ft | 381 kts | 159° |
| 2026-05-04 17:09 | 52.52274 | 3.13217 | 18359 ft | 378 kts | 159° |
| 2026-05-04 17:09 | 52.49838 | 3.14809 | 17755 ft | 375 kts | 159° |
| 2026-05-04 17:09 | 52.47426 | 3.16383 | 17169 ft | 371 kts | 159° |
| 2026-05-04 17:10 | 52.42664 | 3.19483 | 15987 ft | 365 kts | 159° |
| 2026-05-04 17:10 | 52.35669 | 3.24022 | 14262 ft | 356 kts | 159° |
| 2026-05-04 17:11 | 52.33372 | 3.25509 | 13682 ft | 353 kts | 159° |
| 2026-05-04 17:11 | 52.31103 | 3.26976 | 13117 ft | 350 kts | 159° |
| 2026-05-04 17:11 | 52.26638 | 3.29859 | 12000 ft | 344 kts | 159° |
| 2026-05-04 17:12 | 52.24420 | 3.31288 | 11445 ft | 341 kts | 159° |
| 2026-05-04 17:12 | 52.20036 | 3.34110 | 10352 ft | 336 kts | 159° |
| 2026-05-04 17:13 | 52.13927 | 3.38032 | 9881 ft | 293 kts | 159° |
| 2026-05-04 17:14 | 52.08353 | 3.41600 | 8760 ft | 284 kts | 159° |
| 2026-05-04 17:14 | 52.06515 | 3.42774 | 8351 ft | 282 kts | 159° |
| 2026-05-04 17:14 | 52.02876 | 3.45096 | 7545 ft | 279 kts | 159° |
| 2026-05-04 17:15 | 52.01140 | 3.46202 | 7145 ft | 277 kts | 159° |
| 2026-05-04 17:15 | 51.97569 | 3.48475 | 6352 ft | 274 kts | 159° |
| 2026-05-04 17:16 | 51.94029 | 3.50724 | 6004 ft | 274 kts | 159° |
| 2026-05-04 17:16 | 51.88718 | 3.54092 | 5999 ft | 273 kts | 159° |
| 2026-05-04 17:17 | 51.86947 | 3.55213 | 6001 ft | 273 kts | 159° |
| 2026-05-04 17:17 | 51.81819 | 3.59122 | 6000 ft | 274 kts | 133° |
| 2026-05-04 17:18 | 51.80876 | 3.61765 | 6002 ft | 274 kts | 105° |
| 2026-05-04 17:18 | 51.81325 | 3.67739 | 6000 ft | 275 kts | 70° |
| 2026-05-04 17:19 | 51.82657 | 3.73525 | 6000 ft | 274 kts | 70° |
| 2026-05-04 17:19 | 51.83892 | 3.79322 | 5805 ft | 272 kts | 71° |
| 2026-05-04 17:20 | 51.85058 | 3.85131 | 5049 ft | 270 kts | 72° |
| 2026-05-04 17:20 | 51.86053 | 3.90916 | 4262 ft | 267 kts | 82° |
| 2026-05-04 17:20 | 51.86144 | 3.93914 | 3882 ft | 266 kts | 89° |
| 2026-05-04 17:21 | 51.86200 | 3.99831 | 3268 ft | 253 kts | 89° |
| 2026-05-04 17:21 | 51.86269 | 4.05175 | 2969 ft | 223 kts | 89° |
| 2026-05-04 17:22 | 51.86301 | 4.07700 | 2453 ft | 228 kts | 89° |
| 2026-05-04 17:22 | 51.86333 | 4.10357 | 2123 ft | 253 kts | 89° |
| 2026-05-04 17:23 | 51.86453 | 4.18843 | 2005 ft | 229 kts | 84° |
| 2026-05-04 17:23 | 51.86793 | 4.21228 | 1998 ft | 207 kts | 68° |
| 2026-05-04 17:23 | 51.88063 | 4.24974 | 2039 ft | 181 kts | 56° |
| 2026-05-04 17:24 | 51.88720 | 4.26602 | 1998 ft | 162 kts | 57° |
| 2026-05-04 17:24 | 51.90355 | 4.30687 | 1768 ft | 132 kts | 56° |
| 2026-05-04 17:25 | 51.90840 | 4.31899 | 1612 ft | 131 kts | 56° |
| 2026-05-04 17:25 | 51.91821 | 4.34348 | 1265 ft | 129 kts | 56° |
| 2026-05-04 17:26 | 51.92793 | 4.36779 | 929 ft | 128 kts | 56° |
| 2026-05-04 17:26 | 51.94243 | 4.40388 | 374 ft | 127 kts | 56° |
| 2026-05-04 17:27 | 51.95197 | 4.42779 | 58 ft | 126 kts | 57° |
| 2026-05-04 17:27 | 51.96088 | 4.44992 | 84 ft | 125 kts | 57° |
| 2026-05-04 17:28 | 51.97118 | 4.47607 | 1383 ft | 150 kts | 57° |
| 2026-05-04 17:29 | 51.99212 | 4.52845 | 2005 ft | 203 kts | 57° |
| 2026-05-04 17:29 | 52.01518 | 4.58650 | 2008 ft | 204 kts | 57° |
| 2026-05-04 17:30 | 52.02761 | 4.64877 | 2009 ft | 204 kts | 116° |
| 2026-05-04 17:31 | 52.00537 | 4.67525 | 2007 ft | 203 kts | 159° |
| 2026-05-04 17:31 | 51.96683 | 4.70300 | 2004 ft | 201 kts | 170° |
| 2026-05-04 17:32 | 51.94290 | 4.68594 | 2011 ft | 200 kts | 238° |
| 2026-05-04 17:33 | 51.92486 | 4.62544 | 2007 ft | 200 kts | 242° |
| 2026-05-04 17:33 | 51.91799 | 4.60588 | 2006 ft | 200 kts | 239° |
| 2026-05-04 17:34 | 51.89532 | 4.54917 | 2006 ft | 200 kts | 231° |
| 2026-05-04 17:34 | 51.88651 | 4.53179 | 2008 ft | 200 kts | 231° |
| 2026-05-04 17:35 | 51.86024 | 4.47960 | 2008 ft | 200 kts | 231° |
| 2026-05-04 17:35 | 51.84270 | 4.44462 | 2007 ft | 200 kts | 231° |
| 2026-05-04 17:35 | 51.83393 | 4.42717 | 2008 ft | 200 kts | 231° |
| 2026-05-04 17:36 | 51.82514 | 4.40969 | 2006 ft | 200 kts | 231° |
| 2026-05-04 17:36 | 51.81722 | 4.39161 | 2003 ft | 199 kts | 247° |
| 2026-05-04 17:36 | 51.81576 | 4.36976 | 2010 ft | 200 kts | 284° |
| 2026-05-04 17:36 | 51.82276 | 4.35079 | 2012 ft | 200 kts | 318° |
| 2026-05-04 17:37 | 51.83415 | 4.33789 | 2010 ft | 200 kts | 334° |
| 2026-05-04 17:37 | 51.84684 | 4.32841 | 2008 ft | 201 kts | 335° |
| 2026-05-04 17:37 | 51.85962 | 4.31910 | 2009 ft | 200 kts | 335° |
| 2026-05-04 17:37 | 51.87231 | 4.30986 | 2006 ft | 200 kts | 335° |
| 2026-05-04 17:38 | 51.88531 | 4.30162 | 1967 ft | 201 kts | 353° |
| 2026-05-04 17:38 | 51.89859 | 4.30642 | 1829 ft | 202 kts | 32° |
| 2026-05-04 17:38 | 51.90882 | 4.32148 | 1584 ft | 201 kts | 51° |
| 2026-05-04 17:38 | 51.91687 | 4.33978 | 1332 ft | 191 kts | 57° |
| 2026-05-04 17:39 | 51.92950 | 4.37169 | 870 ft | 146 kts | 57° |
| 2026-05-04 17:39 | 51.93465 | 4.38484 | 658 ft | 138 kts | 58° |
| 2026-05-04 17:39 | 51.93977 | 4.39799 | 432 ft | 137 kts | 57° |
| 2026-05-04 17:40 | 51.94501 | 4.41096 | 260 ft | 136 kts | 56° |
| 2026-05-04 17:40 | 51.95029 | 4.42368 | 84 ft | 136 kts | 56° |
| 2026-05-04 17:40 | 51.95526 | 4.43594 | 6 ft | 124 kts | 56° |
| 2026-05-04 17:40 | 51.95918 | 4.44581 | -2 ft | 62 kts | 58° |
| 2026-05-04 17:41 | 51.96106 | 4.45067 | 1 ft | 48 kts | 57° |
| 2026-05-04 17:41 | 51.96090 | 4.45386 | 1 ft | 23 kts | 160° |
| 2026-05-04 17:41 | 51.96066 | 4.45389 | 1 ft | 0 kts | 186° |
| 2026-05-04 17:41 | 51.96056 | 4.45387 | 1 ft | 4 kts | 189° |
| 2026-05-04 17:42 | 51.95992 | 4.45281 | 1 ft | 22 kts | 238° |
| 2026-05-04 17:42 | 51.95900 | 4.45047 | 0 ft | 27 kts | 237° |
| 2026-05-04 17:42 | 51.95788 | 4.44768 | 0 ft | 31 kts | 237° |
| 2026-05-04 17:42 | 51.95662 | 4.44455 | 0 ft | 35 kts | 237° |
| 2026-05-04 17:43 | 51.95525 | 4.44105 | 0 ft | 38 kts | 237° |
| 2026-05-04 17:43 | 51.95380 | 4.43736 | 0 ft | 39 kts | 237° |
| 2026-05-04 17:43 | 51.95271 | 4.43464 | 0 ft | 9 kts | 232° |
| 2026-05-04 17:43 | 51.95210 | 4.43471 | 0 ft | 12 kts | 148° |
| 2026-05-04 17:44 | 51.95130 | 4.43553 | 0 ft | 16 kts | 149° |
| 2026-05-04 17:44 | 51.95084 | 4.43506 | 0 ft | 0 kts | 294° |
| 2026-05-04 17:44 | 51.95111 | 4.43477 | 0 ft | 0 kts | 345° |